createdAt,value
2022-11-25T00:02:01.731Z,0.28
2022-11-25T00:04:34.386Z,0.29
2022-11-25T00:07:03.273Z,0.31
2022-11-25T00:09:31.549Z,0.31
2022-11-25T00:11:59.853Z,0.32
2022-11-25T00:14:28.087Z,0.32
2022-11-25T00:16:56.448Z,0.31
2022-11-25T00:19:24.666Z,0.32
2022-11-25T00:21:52.888Z,0.33
2022-11-25T00:24:21.136Z,0.33
2022-11-25T00:26:49.396Z,0.31
2022-11-25T00:29:18.047Z,0.29
2022-11-25T00:31:46.477Z,0.28
2022-11-25T00:34:15.541Z,0.26
2022-11-25T00:36:44.380Z,0.24
2022-11-25T00:39:15.343Z,0.23
2022-11-25T00:42:03.097Z,0.22
2022-11-25T00:44:40.425Z,0.21
2022-11-25T00:47:16.525Z,0.19
2022-11-25T00:49:50.803Z,0.18
2022-11-25T00:52:22.472Z,0.19
2022-11-25T00:54:51.687Z,0.19
2022-11-25T00:57:22.431Z,0.20
2022-11-25T00:59:51.164Z,0.20
2022-11-25T01:02:23.317Z,0.19
2022-11-25T01:04:51.735Z,0.20
2022-11-25T01:07:20.197Z,0.19
2022-11-25T01:09:49.289Z,0.18
2022-11-25T01:12:17.912Z,0.17
2022-11-25T01:14:46.283Z,0.16
2022-11-25T01:17:15.978Z,0.16
2022-11-25T01:19:44.338Z,0.16
2022-11-25T01:22:12.568Z,0.17
2022-11-25T01:24:44.331Z,0.16
2022-11-25T01:27:12.586Z,0.17
2022-11-25T01:29:43.091Z,0.18
2022-11-25T01:32:11.365Z,0.19
2022-11-25T01:34:40.219Z,0.20
2022-11-25T01:37:08.387Z,0.21
2022-11-25T01:39:36.788Z,0.23
2022-11-25T01:42:05.007Z,0.23
2022-11-25T01:44:36.098Z,0.23
2022-11-25T01:47:20.906Z,0.24
2022-11-25T01:50:03.892Z,0.24
2022-11-25T01:52:36.940Z,0.24
2022-11-25T01:55:14.524Z,0.24
2022-11-25T01:57:53.839Z,0.24
2022-11-25T02:00:22.380Z,0.23
2022-11-25T02:02:53.959Z,0.25
2022-11-25T02:05:33.979Z,0.27
2022-11-25T02:08:04.699Z,0.29
2022-11-25T02:10:35.059Z,0.31
2022-11-25T02:13:05.100Z,0.32
2022-11-25T02:15:35.350Z,0.33
2022-11-25T02:18:06.493Z,0.35
2022-11-25T02:20:35.041Z,0.37
2022-11-25T02:23:31.147Z,0.39
2022-11-25T02:26:00.922Z,0.40
2022-11-25T02:28:30.955Z,0.42
2022-11-25T02:30:59.891Z,0.45
2022-11-25T02:33:28.717Z,0.49
2022-11-25T02:36:01.881Z,0.51
2022-11-25T02:38:50.863Z,0.53
2022-11-25T02:41:25.349Z,0.55
2022-11-25T02:43:57.076Z,0.58
2022-11-25T02:46:27.549Z,0.61
2022-11-25T02:49:08.879Z,0.63
2022-11-25T02:51:39.159Z,0.66
2022-11-25T02:54:07.643Z,0.68
2022-11-25T02:56:36.960Z,0.69
2022-11-25T02:59:05.412Z,0.69
2022-11-25T03:01:35.505Z,0.69
2022-11-25T03:04:06.764Z,0.69
2022-11-25T03:06:35.237Z,0.68
2022-11-25T03:09:03.688Z,0.69
2022-11-25T03:11:50.601Z,0.69
2022-11-25T03:14:19.082Z,0.71
2022-11-25T03:16:47.455Z,0.71
2022-11-25T03:19:15.847Z,0.73
2022-11-25T03:21:44.287Z,0.75
2022-11-25T03:24:12.705Z,0.76
2022-11-25T03:26:40.964Z,0.77
2022-11-25T03:29:09.492Z,0.77
2022-11-25T03:31:38.742Z,0.77
2022-11-25T03:34:09.636Z,0.78
2022-11-25T03:36:38.223Z,0.76
2022-11-25T03:39:07.059Z,0.75
2022-11-25T03:41:35.959Z,0.74
2022-11-25T03:44:04.292Z,0.74
2022-11-25T03:46:32.791Z,0.74
2022-11-25T03:49:02.189Z,0.75
2022-11-25T03:51:30.897Z,0.75
2022-11-25T03:54:00.227Z,0.75
2022-11-25T03:56:28.600Z,0.74
2022-11-25T03:58:57.855Z,0.75
2022-11-25T04:01:26.463Z,0.75
2022-11-25T04:03:54.836Z,0.75
2022-11-25T04:06:24.071Z,0.74
2022-11-25T04:08:53.044Z,0.74
2022-11-25T04:11:22.375Z,0.75
2022-11-25T04:13:52.008Z,0.76
2022-11-25T04:16:25.096Z,0.76
2022-11-25T04:18:53.740Z,0.76
2022-11-25T04:21:22.035Z,0.76
2022-11-25T04:23:51.529Z,0.76
2022-11-25T04:26:19.904Z,0.76
2022-11-25T04:28:48.215Z,0.76
2022-11-25T04:31:16.618Z,0.76
2022-11-25T04:33:48.449Z,0.76
2022-11-25T04:36:21.026Z,0.77
2022-11-25T04:38:49.922Z,0.78
2022-11-25T04:41:19.117Z,0.78
2022-11-25T04:43:47.404Z,0.77
2022-11-25T04:46:23.078Z,0.78
2022-11-25T04:48:52.295Z,0.78
2022-11-25T04:51:20.984Z,0.79
2022-11-25T04:53:51.751Z,0.76
2022-11-25T04:56:20.805Z,0.76
2022-11-25T04:59:09.583Z,0.76
2022-11-25T05:01:41.009Z,0.74
2022-11-25T05:04:29.714Z,0.74
2022-11-25T05:06:57.999Z,0.74
2022-11-25T05:09:26.320Z,0.75
2022-11-25T05:12:05.848Z,0.75
2022-11-25T05:14:36.006Z,0.75
2022-11-25T05:17:06.098Z,0.76
2022-11-25T05:19:36.585Z,0.77
2022-11-25T05:22:04.911Z,0.78
2022-11-25T05:24:34.586Z,0.79
2022-11-25T05:27:03.975Z,0.80
2022-11-25T05:29:32.472Z,0.81
2022-11-25T05:32:01.011Z,0.81
2022-11-25T05:34:29.471Z,0.80
2022-11-25T05:36:58.129Z,0.80
2022-11-25T05:39:26.649Z,0.80
2022-11-25T05:42:17.459Z,0.80
2022-11-25T05:44:46.380Z,0.81
2022-11-25T05:47:14.711Z,0.80
2022-11-25T05:49:43.126Z,0.80
2022-11-25T05:52:11.419Z,0.80
2022-11-25T05:54:46.879Z,0.80
2022-11-25T05:57:15.174Z,0.81
2022-11-25T05:59:48.501Z,0.81
2022-11-25T06:02:22.719Z,0.82
2022-11-25T06:04:52.393Z,0.82
2022-11-25T06:07:20.719Z,0.84
2022-11-25T06:09:50.722Z,0.85
2022-11-25T06:12:21.885Z,0.87
2022-11-25T06:14:51.396Z,0.86
2022-11-25T06:17:19.723Z,0.87
2022-11-25T06:19:56.428Z,0.88
2022-11-25T06:22:25.489Z,0.89
2022-11-25T06:25:00.474Z,0.90
2022-11-25T06:27:56.834Z,0.92
2022-11-25T06:30:20.751Z,0.94
2022-11-25T06:32:59.453Z,0.98
2022-11-25T06:35:27.759Z,1.01
2022-11-25T06:37:59.387Z,1.04
2022-11-25T06:40:27.752Z,1.06
2022-11-25T06:42:56.069Z,1.10
2022-11-25T06:45:24.316Z,1.14
2022-11-25T06:47:52.938Z,1.17
2022-11-25T06:50:21.295Z,1.19
2022-11-25T06:52:49.498Z,1.22
2022-11-25T06:55:17.899Z,1.25
2022-11-25T06:57:46.143Z,1.29
2022-11-25T07:00:14.767Z,1.33
2022-11-25T07:02:48.382Z,1.38
2022-11-25T07:05:17.393Z,1.44
2022-11-25T07:07:45.756Z,1.49
2022-11-25T07:10:14.071Z,1.55
2022-11-25T07:12:42.409Z,1.61
2022-11-25T07:15:10.911Z,1.67
2022-11-25T07:17:39.156Z,1.72
2022-11-25T07:20:08.252Z,1.75
2022-11-25T07:22:36.524Z,1.79
2022-11-25T07:25:04.960Z,1.82
2022-11-25T07:27:33.368Z,1.87
2022-11-25T07:30:54.478Z,1.91
2022-11-25T07:32:49.991Z,1.94
2022-11-25T07:35:18.347Z,1.98
2022-11-25T07:37:46.645Z,2.05
2022-11-25T07:40:14.964Z,2.11
2022-11-25T07:42:43.264Z,2.17
2022-11-25T07:45:11.516Z,2.21
2022-11-25T07:47:45.946Z,2.26
2022-11-25T07:50:14.212Z,2.30
2022-11-25T07:52:42.594Z,2.34
2022-11-25T07:55:10.936Z,2.39
2022-11-25T07:57:39.124Z,2.42
2022-11-25T08:00:07.908Z,2.45
2022-11-25T08:02:42.055Z,2.48
2022-11-25T08:05:11.971Z,2.51
2022-11-25T08:07:41.046Z,2.54
2022-11-25T08:10:10.005Z,2.58
2022-11-25T08:12:39.401Z,2.63
2022-11-25T08:15:10.875Z,2.67
2022-11-25T08:17:39.230Z,2.72
2022-11-25T08:20:09.231Z,2.76
2022-11-25T08:22:37.528Z,2.81
2022-11-25T08:25:09.256Z,2.85
2022-11-25T08:27:42.661Z,2.87
2022-11-25T08:30:16.329Z,2.88
2022-11-25T08:32:46.583Z,2.91
2022-11-25T08:35:15.175Z,2.94
2022-11-25T08:37:43.633Z,2.98
2022-11-25T08:40:12.632Z,3.05
2022-11-25T08:42:41.164Z,3.09
2022-11-25T08:45:12.664Z,3.12
2022-11-25T08:47:41.022Z,3.14
2022-11-25T08:50:15.545Z,3.13
2022-11-25T08:52:44.462Z,3.14
2022-11-25T08:55:13.909Z,3.15
2022-11-25T08:57:42.363Z,3.16
2022-11-25T09:00:13.651Z,3.17
2022-11-25T09:02:42.458Z,3.19
2022-11-25T09:05:16.458Z,3.21
2022-11-25T09:07:45.831Z,3.24
2022-11-25T09:10:25.043Z,3.28
2022-11-25T09:12:54.844Z,3.32
2022-11-25T09:15:23.166Z,3.36
2022-11-25T09:18:01.864Z,3.40
2022-11-25T09:20:32.582Z,3.44
2022-11-25T09:23:02.271Z,3.48
2022-11-25T09:25:36.841Z,3.52
2022-11-25T09:28:05.703Z,3.57
2022-11-25T09:30:45.049Z,3.59
2022-11-25T09:33:14.008Z,3.63
2022-11-25T09:35:43.146Z,3.66
2022-11-25T09:38:16.078Z,3.69
2022-11-25T09:41:01.037Z,3.73
2022-11-25T09:44:01.669Z,3.77
2022-11-25T09:46:46.256Z,3.82
2022-11-25T09:49:46.742Z,3.85
2022-11-25T09:52:32.411Z,3.88
2022-11-25T09:55:07.340Z,3.91
2022-11-25T09:57:59.772Z,3.93
2022-11-25T10:00:44.036Z,3.95
2022-11-25T10:03:43.102Z,3.97
2022-11-25T10:06:20.615Z,3.98
2022-11-25T10:08:53.574Z,3.98
2022-11-25T10:11:26.883Z,3.98
2022-11-25T10:13:58.897Z,3.98
2022-11-25T10:16:48.592Z,3.97
2022-11-25T10:19:38.296Z,3.96
2022-11-25T10:22:44.233Z,3.93
2022-11-25T10:25:25.488Z,3.91
2022-11-25T10:28:02.088Z,3.89
2022-11-25T10:30:51.060Z,3.89
2022-11-25T10:33:28.713Z,3.88
2022-11-25T10:36:15.731Z,3.88
2022-11-25T10:38:55.728Z,3.86
2022-11-25T10:41:28.533Z,3.86
2022-11-25T10:43:57.441Z,3.86
2022-11-25T10:47:12.961Z,3.84
2022-11-25T10:49:59.821Z,3.83
2022-11-25T10:52:30.816Z,3.79
2022-11-25T10:55:09.796Z,3.76
2022-11-25T10:57:38.234Z,3.74
2022-11-25T11:00:12.760Z,3.72
2022-11-25T11:02:48.361Z,3.70
2022-11-25T11:05:23.020Z,3.69
2022-11-25T11:08:17.193Z,3.69
2022-11-25T11:10:47.137Z,3.69
2022-11-25T11:13:33.282Z,3.68
2022-11-25T11:16:01.712Z,3.67
2022-11-25T11:18:36.414Z,3.66
2022-11-25T11:21:29.802Z,3.64
2022-11-25T11:23:59.985Z,3.63
2022-11-25T11:26:36.055Z,3.62
2022-11-25T11:29:17.113Z,3.60
2022-11-25T11:31:49.355Z,3.58
2022-11-25T11:34:38.812Z,3.57
2022-11-25T11:37:32.747Z,3.55
2022-11-25T11:40:19.640Z,3.52
2022-11-25T11:42:54.943Z,3.48
2022-11-25T11:46:08.331Z,3.45
2022-11-25T11:48:53.436Z,3.44
2022-11-25T11:51:31.690Z,3.42
2022-11-25T11:54:34.225Z,3.41
2022-11-25T11:57:14.994Z,3.39
2022-11-25T11:59:49.413Z,3.36
2022-11-25T12:02:48.228Z,3.33
2022-11-25T12:05:22.055Z,3.29
2022-11-25T12:08:09.616Z,3.27
2022-11-25T12:10:58.771Z,3.26
2022-11-25T12:13:50.464Z,3.23
2022-11-25T12:16:34.287Z,3.22
2022-11-25T12:19:18.897Z,3.19
2022-11-25T12:21:55.517Z,3.16
2022-11-25T12:24:32.294Z,3.13
2022-11-25T12:27:07.078Z,3.11
2022-11-25T12:29:48.123Z,3.11
2022-11-25T12:32:38.030Z,3.10
2022-11-25T12:35:06.732Z,3.09
2022-11-25T12:38:15.360Z,3.08
2022-11-25T12:41:02.541Z,3.08
2022-11-25T12:43:47.734Z,3.09
2022-11-25T12:46:16.463Z,3.09
2022-11-25T12:48:45.170Z,3.09
2022-11-25T12:51:42.639Z,3.07
2022-11-25T12:54:21.052Z,3.07
2022-11-25T12:57:07.734Z,3.06
2022-11-25T13:00:39.416Z,3.05
2022-11-25T13:03:18.008Z,3.04
2022-11-25T13:06:18.827Z,3.03
2022-11-25T13:09:08.632Z,3.02
2022-11-25T13:12:15.038Z,3.02
2022-11-25T13:14:56.110Z,3.01
2022-11-25T13:17:30.041Z,3.00
2022-11-25T13:20:39.573Z,2.98
2022-11-25T13:23:24.440Z,2.97
2022-11-25T13:26:14.423Z,2.95
2022-11-25T13:28:42.945Z,2.94
2022-11-25T13:31:14.411Z,2.95
2022-11-25T13:33:48.830Z,2.95
2022-11-25T13:36:23.283Z,2.96
2022-11-25T13:38:52.271Z,2.96
2022-11-25T13:41:24.701Z,2.95
2022-11-25T13:43:53.757Z,2.95
2022-11-25T13:46:47.638Z,2.96
2022-11-25T13:49:55.962Z,2.96
2022-11-25T13:52:43.259Z,2.96
2022-11-25T13:55:17.333Z,2.95
2022-11-25T13:58:02.379Z,2.93
2022-11-25T14:00:34.964Z,2.91
2022-11-25T14:03:25.031Z,2.88
2022-11-25T14:05:58.181Z,2.84
2022-11-25T14:08:41.157Z,2.82
2022-11-25T14:11:09.779Z,2.79
2022-11-25T14:14:00.004Z,2.75
2022-11-25T14:17:14.704Z,2.72
2022-11-25T14:20:20.653Z,2.66
2022-11-25T14:23:22.209Z,2.62
2022-11-25T14:25:55.454Z,2.59
2022-11-25T14:28:40.101Z,2.58
2022-11-25T14:31:16.411Z,2.54
2022-11-25T14:33:57.266Z,2.50
2022-11-25T14:36:31.805Z,2.45
2022-11-25T14:39:06.476Z,2.43
2022-11-25T14:42:08.296Z,2.40
2022-11-25T14:44:50.178Z,2.37
2022-11-25T14:47:27.455Z,2.35
2022-11-25T14:52:48.014Z,2.33
2022-11-25T14:55:30.366Z,2.32
2022-11-25T14:57:58.931Z,2.31
2022-11-25T15:00:27.605Z,2.29
2022-11-25T15:03:01.950Z,2.27
2022-11-25T15:05:34.957Z,2.26
2022-11-25T15:08:17.958Z,2.23
2022-11-25T15:11:01.385Z,2.21
2022-11-25T15:13:32.694Z,2.18
2022-11-25T15:16:13.870Z,2.16
2022-11-25T15:18:57.521Z,2.14
2022-11-25T15:21:53.790Z,2.13
2022-11-25T15:24:30.693Z,2.10
2022-11-25T15:27:03.860Z,2.08
2022-11-25T15:29:41.190Z,2.07
2022-11-25T15:32:16.431Z,2.07
2022-11-25T15:34:49.455Z,2.06
2022-11-25T15:37:18.196Z,2.05
2022-11-25T15:39:48.740Z,2.02
2022-11-25T15:42:26.681Z,1.98
2022-11-25T15:45:07.030Z,1.96
2022-11-25T15:47:37.084Z,1.95
2022-11-25T15:50:24.948Z,1.94
2022-11-25T15:52:57.152Z,1.94
2022-11-25T15:55:38.084Z,1.93
2022-11-25T15:58:20.188Z,1.91
2022-11-25T16:01:03.701Z,1.88
2022-11-25T16:03:33.732Z,1.85
2022-11-25T16:06:02.664Z,1.84
2022-11-25T16:08:36.575Z,1.82
2022-11-25T16:11:12.594Z,1.81
2022-11-25T16:13:41.883Z,1.80
2022-11-25T16:16:12.781Z,1.79
2022-11-25T16:19:02.211Z,1.79
2022-11-25T16:21:56.532Z,1.79
2022-11-25T16:24:38.339Z,1.79
2022-11-25T16:27:15.104Z,1.79
2022-11-25T16:29:58.413Z,1.80
2022-11-25T16:32:29.254Z,1.81
2022-11-25T16:35:22.360Z,1.79
2022-11-25T16:37:51.146Z,1.77
2022-11-25T16:40:19.640Z,1.76
2022-11-25T16:42:50.089Z,1.75
2022-11-25T16:45:27.489Z,1.73
2022-11-25T16:47:55.791Z,1.73
2022-11-25T16:50:24.422Z,1.73
2022-11-25T16:52:56.276Z,1.73
2022-11-25T16:55:25.364Z,1.73
2022-11-25T16:57:54.429Z,1.72
2022-11-25T17:00:22.844Z,1.71
2022-11-25T17:02:51.299Z,1.71
2022-11-25T17:05:21.948Z,1.72
2022-11-25T17:07:51.141Z,1.73
2022-11-25T17:10:20.884Z,1.74
2022-11-25T17:12:52.139Z,1.74
2022-11-25T17:15:29.394Z,1.73
2022-11-25T17:17:58.731Z,1.73
2022-11-25T17:20:27.694Z,1.73
2022-11-25T17:22:58.981Z,1.74
2022-11-25T17:25:31.082Z,1.75
2022-11-25T17:28:07.228Z,1.75
2022-11-25T17:30:38.728Z,1.74
2022-11-25T17:33:19.096Z,1.74
2022-11-25T17:35:47.667Z,1.77
2022-11-25T17:38:19.676Z,1.77
2022-11-25T17:40:48.241Z,1.78
2022-11-25T17:43:19.260Z,1.78
2022-11-25T17:45:47.868Z,1.77
2022-11-25T17:48:17.868Z,1.78
2022-11-25T17:50:48.304Z,1.78
2022-11-25T17:53:16.591Z,1.78
2022-11-25T17:55:44.902Z,1.78
2022-11-25T17:58:19.290Z,1.79
2022-11-25T18:00:48.981Z,1.79
2022-11-25T18:03:17.487Z,1.79
2022-11-25T18:05:46.289Z,1.79
2022-11-25T18:08:15.161Z,1.81
2022-11-25T18:10:46.443Z,1.82
2022-11-25T18:13:16.470Z,1.83
2022-11-25T18:15:45.844Z,1.83
2022-11-25T18:18:25.630Z,1.84
2022-11-25T18:20:54.334Z,1.85
2022-11-25T18:23:24.084Z,1.86
2022-11-25T18:25:58.065Z,1.85
2022-11-25T18:28:28.865Z,1.83
2022-11-25T18:31:01.020Z,1.83
2022-11-25T18:33:30.183Z,1.84
2022-11-25T18:35:58.598Z,1.82
2022-11-25T18:38:32.256Z,1.81
2022-11-25T18:41:06.251Z,1.80
2022-11-25T18:43:35.210Z,1.80
2022-11-25T18:46:09.491Z,1.79
2022-11-25T18:48:40.646Z,1.80
2022-11-25T18:51:11.861Z,1.80
2022-11-25T18:53:40.181Z,1.79
2022-11-25T18:56:17.711Z,1.80
2022-11-25T18:58:50.779Z,1.80
2022-11-25T19:01:22.276Z,1.77
2022-11-25T19:03:51.259Z,1.75
2022-11-25T19:06:24.725Z,1.72
2022-11-25T19:08:53.319Z,1.69
2022-11-25T19:11:43.534Z,1.67
2022-11-25T19:14:29.055Z,1.62
2022-11-25T19:17:02.795Z,1.58
2022-11-25T19:19:39.568Z,1.55
2022-11-25T19:22:22.984Z,1.52
2022-11-25T19:24:52.218Z,1.49
2022-11-25T19:27:24.064Z,1.48
2022-11-25T19:29:54.614Z,1.49
2022-11-25T19:32:29.527Z,1.48
2022-11-25T19:35:03.147Z,1.45
2022-11-25T19:37:31.966Z,1.42
2022-11-25T19:40:03.088Z,1.41
2022-11-25T19:42:33.675Z,1.39
2022-11-25T19:45:12.303Z,1.37
2022-11-25T19:47:40.647Z,1.38
2022-11-25T19:50:22.738Z,1.38
2022-11-25T19:52:52.386Z,1.40
2022-11-25T19:55:25.973Z,1.41
2022-11-25T19:57:57.689Z,1.43
2022-11-25T20:00:27.016Z,1.46
2022-11-25T20:02:56.349Z,1.49
2022-11-25T20:05:33.369Z,1.50
2022-11-25T20:08:01.864Z,1.51
2022-11-25T20:10:33.483Z,1.54
2022-11-25T20:13:01.811Z,1.56
2022-11-25T20:15:31.031Z,1.58
2022-11-25T20:18:01.640Z,1.59
2022-11-25T20:20:39.367Z,1.59
2022-11-25T20:23:17.143Z,1.60
2022-11-25T20:25:50.060Z,1.60
2022-11-25T20:28:27.072Z,1.61
2022-11-25T20:31:02.870Z,1.63
2022-11-25T20:33:33.449Z,1.64
2022-11-25T20:36:14.180Z,1.65
2022-11-25T20:38:48.422Z,1.65
2022-11-25T20:41:18.414Z,1.67
2022-11-25T20:43:50.518Z,1.68
2022-11-25T20:46:23.133Z,1.69
2022-11-25T20:48:56.844Z,1.69
2022-11-25T20:51:33.251Z,1.70
2022-11-25T20:54:01.781Z,1.70
2022-11-25T20:56:30.566Z,1.71
2022-11-25T20:59:02.129Z,1.71
2022-11-25T21:01:30.575Z,1.71
2022-11-25T21:03:58.912Z,1.71
2022-11-25T21:06:30.298Z,1.72
2022-11-25T21:09:01.268Z,1.73
2022-11-25T21:11:33.064Z,1.75
2022-11-25T21:14:01.663Z,1.77
2022-11-25T21:16:30.179Z,1.78
2022-11-25T21:19:03.883Z,1.80
2022-11-25T21:21:35.973Z,1.82
2022-11-25T21:24:24.000Z,1.84
2022-11-25T21:26:52.454Z,1.86
2022-11-25T21:29:20.956Z,1.87
2022-11-25T21:31:49.599Z,1.88
2022-11-25T21:34:18.040Z,1.93
2022-11-25T21:36:49.239Z,1.98
2022-11-25T21:39:23.592Z,2.02
2022-11-25T21:41:52.407Z,2.07
2022-11-25T21:44:28.811Z,2.13
2022-11-25T21:46:57.227Z,2.22
2022-11-25T21:49:26.668Z,2.31
2022-11-25T21:51:55.575Z,2.39
2022-11-25T21:54:23.976Z,2.46
2022-11-25T21:56:52.404Z,2.52
2022-11-25T21:59:21.134Z,2.58
2022-11-25T22:01:49.487Z,2.64
2022-11-25T22:04:21.312Z,2.71
2022-11-25T22:06:57.368Z,2.76
2022-11-25T22:09:28.342Z,2.78
2022-11-25T22:12:02.421Z,2.79
2022-11-25T22:14:40.883Z,2.78
2022-11-25T22:17:18.137Z,2.76
2022-11-25T22:19:51.055Z,2.80
2022-11-25T22:22:25.489Z,2.84
2022-11-25T22:24:56.642Z,2.86
2022-11-25T22:27:29.855Z,2.88
2022-11-25T22:30:02.446Z,2.90
2022-11-25T22:32:33.120Z,2.90
2022-11-25T22:35:06.046Z,2.90
2022-11-25T22:37:35.213Z,2.90
2022-11-25T22:40:05.346Z,2.91
2022-11-25T22:42:33.864Z,2.90
2022-11-25T22:45:07.414Z,2.90
2022-11-25T22:47:41.017Z,2.90
2022-11-25T22:50:29.074Z,2.90
2022-11-25T22:52:58.631Z,2.90
2022-11-25T22:55:32.206Z,2.89
2022-11-25T22:58:01.800Z,2.87
2022-11-25T23:00:37.535Z,2.86
2022-11-25T23:03:20.468Z,2.85
2022-11-25T23:05:51.429Z,2.83
2022-11-25T23:08:24.001Z,2.81
2022-11-25T23:10:59.020Z,2.81
2022-11-25T23:13:27.313Z,2.80
2022-11-25T23:15:58.810Z,2.79
2022-11-25T23:18:41.028Z,2.79
2022-11-25T23:21:27.944Z,2.79
2022-11-25T23:23:57.129Z,2.80
2022-11-25T23:26:35.021Z,2.79
2022-11-25T23:29:03.960Z,2.77
2022-11-25T23:31:38.208Z,2.74
2022-11-25T23:34:12.601Z,2.72
2022-11-25T23:36:46.394Z,2.70
2022-11-25T23:39:24.419Z,2.68
2022-11-25T23:41:54.312Z,2.65
2022-11-25T23:44:29.632Z,2.63
2022-11-25T23:47:20.407Z,2.62
2022-11-25T23:49:52.300Z,2.62
2022-11-25T23:52:24.335Z,2.62
2022-11-25T23:54:53.179Z,2.59
2022-11-25T23:57:24.763Z,2.59
2022-11-25T23:59:53.933Z,2.59
